createdAt,value
2019-02-21T00:01:00.763Z,21.33
2019-02-21T00:03:30.044Z,21.48
2019-02-21T00:05:59.323Z,21.80
2019-02-21T00:08:28.693Z,22.17
2019-02-21T00:10:57.973Z,21.82
2019-02-21T00:13:27.240Z,22.32
2019-02-21T00:15:56.521Z,22.02
2019-02-21T00:18:25.795Z,21.65
2019-02-21T00:20:55.120Z,21.12
2019-02-21T00:23:24.376Z,20.88
2019-02-21T00:25:55.734Z,21.82
2019-02-21T00:28:24.679Z,22.07
2019-02-21T00:30:53.972Z,22.15
2019-02-21T00:33:23.224Z,21.17
2019-02-21T00:35:52.508Z,21.55
2019-02-21T00:38:21.742Z,20.75
2019-02-21T00:40:51.049Z,21.30
2019-02-21T00:43:20.303Z,20.65
2019-02-21T00:45:49.589Z,20.57
2019-02-21T00:48:18.862Z,21.60
2019-02-21T00:50:48.169Z,20.17
2019-02-21T00:53:17.430Z,22.93
2019-02-21T00:55:46.754Z,23.98
2019-02-21T00:58:16.053Z,23.07
2019-02-21T01:00:46.732Z,24.05
2019-02-21T01:03:16.266Z,23.00
2019-02-21T01:05:45.566Z,22.87
2019-02-21T01:08:14.828Z,22.40
2019-02-21T01:10:44.112Z,22.80
2019-02-21T01:13:13.372Z,23.20
2019-02-21T01:15:42.643Z,24.57
2019-02-21T01:18:11.911Z,24.85
2019-02-21T01:20:41.186Z,25.17
2019-02-21T01:23:10.455Z,24.65
2019-02-21T01:25:39.715Z,25.35
2019-02-21T01:28:08.993Z,27.45
2019-02-21T01:30:38.246Z,26.62
2019-02-21T01:33:07.540Z,27.73
2019-02-21T01:35:36.789Z,28.12
2019-02-21T01:38:06.106Z,29.18
2019-02-21T01:40:35.413Z,28.77
2019-02-21T01:43:04.685Z,28.45
2019-02-21T01:45:33.936Z,27.80
2019-02-21T01:48:03.229Z,29.82
2019-02-21T01:50:32.918Z,28.90
2019-02-21T01:53:02.194Z,29.90
2019-02-21T01:55:31.430Z,29.52
2019-02-21T01:58:00.691Z,29.07
2019-02-21T02:00:29.953Z,29.40
2019-02-21T02:02:59.318Z,29.23
2019-02-21T02:05:28.709Z,28.23
2019-02-21T02:07:58.036Z,28.60
2019-02-21T02:10:27.425Z,29.30
2019-02-21T02:12:56.709Z,29.10
2019-02-21T02:15:26.011Z,28.53
2019-02-21T02:17:55.255Z,28.15
2019-02-21T02:20:24.575Z,28.97
2019-02-21T02:22:53.853Z,28.10
2019-02-21T02:25:23.130Z,28.33
2019-02-21T02:27:52.391Z,28.23
2019-02-21T02:30:21.693Z,28.80
2019-02-21T02:32:50.954Z,27.93
2019-02-21T02:35:20.256Z,28.07
2019-02-21T02:37:49.548Z,27.00
2019-02-21T02:40:18.837Z,28.80
2019-02-21T02:42:48.082Z,28.52
2019-02-21T02:45:17.357Z,28.67
2019-02-21T02:47:46.634Z,28.25
2019-02-21T02:50:15.911Z,28.57
2019-02-21T02:52:45.167Z,28.02
2019-02-21T02:55:14.431Z,28.87
2019-02-21T02:57:43.714Z,29.12
2019-02-21T03:00:14.438Z,28.53
2019-02-21T03:02:43.670Z,28.92
2019-02-21T03:05:13.022Z,29.70
2019-02-21T03:07:42.280Z,28.42
2019-02-21T03:10:13.949Z,28.90
2019-02-21T03:12:43.252Z,29.32
2019-02-21T03:15:12.498Z,28.53
2019-02-21T03:17:41.772Z,29.02
2019-02-21T03:20:11.203Z,29.57
2019-02-21T03:22:40.448Z,30.23
2019-02-21T03:25:09.854Z,28.52
2019-02-21T03:27:39.143Z,28.90
2019-02-21T03:30:12.194Z,27.93
2019-02-21T03:32:40.109Z,28.73
2019-02-21T03:35:09.481Z,29.02
2019-02-21T03:37:38.943Z,29.07
2019-02-21T03:40:08.866Z,28.73
2019-02-21T03:42:38.188Z,29.92
2019-02-21T03:45:08.692Z,29.00
2019-02-21T03:47:38.005Z,28.65
2019-02-21T03:50:08.006Z,28.54
2019-02-21T03:52:37.362Z,28.90
2019-02-21T03:55:07.956Z,29.60
2019-02-21T03:57:37.416Z,29.67
2019-02-21T04:00:08.096Z,30.74
2019-02-21T04:02:37.467Z,29.92
2019-02-21T04:05:07.666Z,30.78
2019-02-21T04:07:36.930Z,29.05
2019-02-21T04:10:06.584Z,30.77
2019-02-21T04:12:35.848Z,30.25
2019-02-21T04:15:05.705Z,30.72
2019-02-21T04:17:35.024Z,29.98
2019-02-21T04:20:04.315Z,29.52
2019-02-21T04:22:33.627Z,28.90
2019-02-21T04:25:02.909Z,28.60
2019-02-21T04:27:32.183Z,29.85
2019-02-21T04:30:01.588Z,28.77
2019-02-21T04:32:30.870Z,29.45
2019-02-21T04:35:00.379Z,28.70
2019-02-21T04:37:29.695Z,30.35
2019-02-21T04:39:58.994Z,30.20
2019-02-21T04:42:28.321Z,30.12
2019-02-21T04:45:00.511Z,31.00
2019-02-21T04:47:28.609Z,30.62
2019-02-21T04:49:57.902Z,30.30
2019-02-21T04:52:28.404Z,29.50
2019-02-21T04:54:57.599Z,29.60
2019-02-21T04:57:26.840Z,29.32
2019-02-21T04:59:56.150Z,29.07
2019-02-21T05:02:28.937Z,29.10
2019-02-21T05:04:56.479Z,29.48
2019-02-21T05:07:25.849Z,28.92
2019-02-21T05:09:58.238Z,30.68
2019-02-21T05:12:26.245Z,29.98
2019-02-21T05:14:55.640Z,29.72
2019-02-21T05:17:24.902Z,30.70
2019-02-21T05:19:54.209Z,31.82
2019-02-21T05:22:23.497Z,32.10
2019-02-21T05:24:52.786Z,31.33
2019-02-21T05:27:29.434Z,33.30
2019-02-21T05:29:58.703Z,33.10
2019-02-21T05:32:45.752Z,34.20
2019-02-21T05:35:30.938Z,33.83
2019-02-21T05:38:15.371Z,33.83
2019-02-21T05:40:52.138Z,34.48
2019-02-21T05:43:26.424Z,32.60
2019-02-21T05:46:14.673Z,33.80
2019-02-21T05:49:11.972Z,34.13
2019-02-21T05:51:48.939Z,34.35
2019-02-21T05:54:43.094Z,33.70
2019-02-21T05:57:31.322Z,33.55
2019-02-21T06:00:25.773Z,33.98
2019-02-21T06:03:07.143Z,34.23
2019-02-21T06:05:58.130Z,34.10
2019-02-21T06:08:55.228Z,34.95
2019-02-21T06:11:52.593Z,35.40
2019-02-21T06:14:33.841Z,36.10
2019-02-21T06:17:09.291Z,37.17
2019-02-21T06:20:06.619Z,38.17
2019-02-21T06:22:53.243Z,38.98
2019-02-21T06:25:34.025Z,37.97
2019-02-21T06:28:07.525Z,41.88
2019-02-21T06:30:43.245Z,41.90
2019-02-21T06:33:11.709Z,43.63
2019-02-21T06:35:40.972Z,43.40
2019-02-21T06:38:10.273Z,41.63
2019-02-21T06:40:39.745Z,41.60
2019-02-21T06:43:09.057Z,39.48
2019-02-21T06:45:38.287Z,38.90
2019-02-21T06:48:07.589Z,38.25
2019-02-21T06:50:36.855Z,39.38
2019-02-21T06:53:06.198Z,39.78
2019-02-21T06:55:35.549Z,40.85
2019-02-21T06:58:04.918Z,41.23
2019-02-21T07:00:34.149Z,42.78
2019-02-21T07:03:03.584Z,43.00
2019-02-21T07:05:32.862Z,41.70
2019-02-21T07:08:02.149Z,43.08
2019-02-21T07:10:31.485Z,42.20
2019-02-21T07:13:00.863Z,41.42
2019-02-21T07:15:30.151Z,41.25
2019-02-21T07:17:59.430Z,40.63
2019-02-21T07:20:28.705Z,41.37
2019-02-21T07:22:57.966Z,40.85
2019-02-21T07:25:34.544Z,41.23
2019-02-21T07:28:11.198Z,41.65
2019-02-21T07:30:34.841Z,41.25
2019-02-21T07:33:04.097Z,41.60
2019-02-21T07:35:33.371Z,40.65
2019-02-21T07:38:02.645Z,41.30
2019-02-21T07:40:31.924Z,42.25
2019-02-21T07:43:01.209Z,40.67
2019-02-21T07:45:30.487Z,42.53
2019-02-21T07:47:59.827Z,42.08
2019-02-21T07:50:29.134Z,42.15
2019-02-21T07:53:02.539Z,41.80
2019-02-21T07:55:29.468Z,41.30
2019-02-21T07:57:58.718Z,41.83
2019-02-21T08:00:28.035Z,38.80
2019-02-21T08:02:57.307Z,39.78
2019-02-21T08:05:26.626Z,39.23
2019-02-21T08:07:55.898Z,38.02
2019-02-21T08:10:33.220Z,35.80
2019-02-21T08:12:56.289Z,36.35
2019-02-21T08:15:27.676Z,37.00
2019-02-21T08:17:56.607Z,35.20
2019-02-21T08:20:33.510Z,36.50
2019-02-21T08:22:56.905Z,36.35
2019-02-21T08:25:26.145Z,36.67
2019-02-21T08:27:55.457Z,36.38
2019-02-21T08:30:24.713Z,35.63
2019-02-21T08:33:22.033Z,36.68
2019-02-21T08:35:53.902Z,35.55
2019-02-21T08:38:22.361Z,36.98
2019-02-21T08:40:53.313Z,35.35
2019-02-21T08:43:22.669Z,35.95
2019-02-21T08:45:51.940Z,35.78
2019-02-21T08:48:21.279Z,35.33
2019-02-21T08:50:50.532Z,36.05
2019-02-21T08:53:19.866Z,35.43
2019-02-21T08:55:49.122Z,35.48
2019-02-21T08:58:18.530Z,35.95
2019-02-21T09:00:47.841Z,36.90
2019-02-21T09:03:18.173Z,35.40
2019-02-21T09:05:47.603Z,35.83
2019-02-21T09:08:17.004Z,37.08
2019-02-21T09:10:46.352Z,36.33
2019-02-21T09:13:15.647Z,35.25
2019-02-21T09:15:46.610Z,35.98
2019-02-21T09:18:16.091Z,36.42
2019-02-21T09:20:47.764Z,35.70
2019-02-21T09:23:16.415Z,36.50
2019-02-21T09:25:49.618Z,35.25
2019-02-21T09:28:19.080Z,35.50
2019-02-21T09:30:48.333Z,37.17
2019-02-21T09:33:21.116Z,37.48
2019-02-21T09:35:48.723Z,36.80
2019-02-21T09:38:18.088Z,36.83
2019-02-21T09:40:47.332Z,36.73
2019-02-21T09:43:16.622Z,36.50
2019-02-21T09:45:45.896Z,36.05
2019-02-21T09:48:15.168Z,37.00
2019-02-21T09:50:44.497Z,36.45
2019-02-21T09:53:13.782Z,38.02
2019-02-21T09:55:43.082Z,37.73
2019-02-21T09:58:12.344Z,37.45
2019-02-21T10:00:41.626Z,38.28
2019-02-21T10:03:10.873Z,37.88
2019-02-21T10:05:40.149Z,37.35
2019-02-21T10:08:09.403Z,37.05
2019-02-21T10:10:38.740Z,38.20
2019-02-21T10:13:08.023Z,38.58
2019-02-21T10:15:37.317Z,37.75
2019-02-21T10:18:06.568Z,37.13
2019-02-21T10:20:35.853Z,36.13
2019-02-21T10:23:05.095Z,37.58
2019-02-21T10:25:34.402Z,35.90
2019-02-21T10:28:03.708Z,36.63
2019-02-21T10:30:33.041Z,36.55
2019-02-21T10:33:02.300Z,35.23
2019-02-21T10:35:31.656Z,35.78
2019-02-21T10:38:00.940Z,34.95
2019-02-21T10:40:30.242Z,35.28
2019-02-21T10:42:59.557Z,34.88
2019-02-21T10:45:28.830Z,34.23
2019-02-21T10:47:58.111Z,34.73
2019-02-21T10:50:27.390Z,34.43
2019-02-21T10:52:56.704Z,33.25
2019-02-21T10:55:25.981Z,34.00
2019-02-21T10:57:55.263Z,33.60
2019-02-21T11:00:26.891Z,34.43
2019-02-21T11:02:56.155Z,33.50
2019-02-21T11:05:25.432Z,32.67
2019-02-21T11:07:54.738Z,33.98
2019-02-21T11:10:25.954Z,33.37
2019-02-21T11:12:55.312Z,33.48
2019-02-21T11:15:24.916Z,32.53
2019-02-21T11:17:54.307Z,33.73
2019-02-21T11:20:23.613Z,32.63
2019-02-21T11:22:52.921Z,33.60
2019-02-21T11:25:22.195Z,32.40
2019-02-21T11:27:51.489Z,31.42
2019-02-21T11:30:20.880Z,31.77
2019-02-21T11:32:50.207Z,31.68
2019-02-21T11:35:19.537Z,32.60
2019-02-21T11:37:48.844Z,30.70
2019-02-21T11:40:18.293Z,28.87
2019-02-21T11:42:47.673Z,25.80
2019-02-21T11:45:17.593Z,25.70
2019-02-21T11:47:46.880Z,24.85
2019-02-21T11:50:17.083Z,24.50
2019-02-21T11:52:46.368Z,24.02
2019-02-21T11:55:18.032Z,24.15
2019-02-21T11:57:47.411Z,25.35
2019-02-21T12:00:21.544Z,24.40
2019-02-21T12:02:50.841Z,24.05
2019-02-21T12:05:30.688Z,23.87
2019-02-21T12:07:51.478Z,21.70
2019-02-21T12:10:20.888Z,22.03
2019-02-21T12:12:50.156Z,22.95
2019-02-21T12:15:19.572Z,23.50
2019-02-21T12:17:48.850Z,22.82
2019-02-21T12:20:18.357Z,22.97
2019-02-21T12:22:47.641Z,20.43
2019-02-21T12:25:17.282Z,20.43
2019-02-21T12:27:46.557Z,22.42
2019-02-21T12:30:17.407Z,22.13
2019-02-21T12:32:46.776Z,22.55
2019-02-21T12:35:16.073Z,21.43
2019-02-21T12:37:45.374Z,19.02
2019-02-21T12:40:17.148Z,18.93
2019-02-21T12:42:46.427Z,20.37
2019-02-21T12:45:17.590Z,18.30
2019-02-21T12:47:53.146Z,19.25
2019-02-21T12:50:17.976Z,19.07
2019-02-21T12:52:47.247Z,18.87
2019-02-21T12:55:27.300Z,20.00
2019-02-21T12:57:47.534Z,20.60
2019-02-21T13:00:18.203Z,19.97
2019-02-21T13:02:47.479Z,19.48
2019-02-21T13:05:16.771Z,18.13
2019-02-21T13:07:46.079Z,16.75
2019-02-21T13:10:16.957Z,18.67
2019-02-21T13:12:46.246Z,19.30
2019-02-21T13:15:15.898Z,19.03
2019-02-21T13:17:45.182Z,18.82
2019-02-21T13:20:14.762Z,18.95
2019-02-21T13:22:44.218Z,19.25
2019-02-21T13:25:13.820Z,21.00
2019-02-21T13:27:43.107Z,21.05
2019-02-21T13:30:14.644Z,20.84
2019-02-21T13:32:43.985Z,22.32
2019-02-21T13:35:13.418Z,22.65
2019-02-21T13:37:42.818Z,22.17
2019-02-21T13:40:13.445Z,22.15
2019-02-21T13:42:42.743Z,21.52
2019-02-21T13:45:17.006Z,20.70
2019-02-21T13:47:44.995Z,22.07
2019-02-21T13:50:15.761Z,21.67
2019-02-21T13:52:45.070Z,22.05
2019-02-21T13:55:14.319Z,21.37
2019-02-21T13:57:43.610Z,22.37
2019-02-21T14:00:15.454Z,21.93
2019-02-21T14:02:44.766Z,21.83
2019-02-21T14:05:14.136Z,22.13
2019-02-21T14:07:43.469Z,22.13
2019-02-21T14:10:15.253Z,23.30
2019-02-21T14:12:44.552Z,22.67
2019-02-21T14:15:16.581Z,22.73
2019-02-21T14:17:46.733Z,22.10
2019-02-21T14:20:16.244Z,21.50
2019-02-21T14:22:45.530Z,21.45
2019-02-21T14:25:14.854Z,22.53
2019-02-21T14:27:44.139Z,22.90
2019-02-21T14:30:15.486Z,22.20
2019-02-21T14:32:44.770Z,23.38
2019-02-21T14:35:14.705Z,24.10
2019-02-21T14:37:44.018Z,23.73
2019-02-21T14:40:16.059Z,23.60
2019-02-21T14:42:45.404Z,23.60
2019-02-21T14:45:16.226Z,24.20
2019-02-21T14:47:45.499Z,25.25
2019-02-21T14:50:14.953Z,24.70
2019-02-21T14:52:44.303Z,24.40
2019-02-21T14:55:15.397Z,23.98
2019-02-21T14:57:44.759Z,24.65
2019-02-21T15:00:20.018Z,25.13
2019-02-21T15:02:49.353Z,24.57
2019-02-21T15:05:19.344Z,25.57
2019-02-21T15:07:48.693Z,24.63
2019-02-21T15:10:18.062Z,24.67
2019-02-21T15:12:47.727Z,25.35
2019-02-21T15:15:17.881Z,25.00
2019-02-21T15:17:47.206Z,25.17
2019-02-21T15:20:17.165Z,24.20
2019-02-21T15:22:46.562Z,24.67
2019-02-21T15:25:15.880Z,25.27
2019-02-21T15:27:45.192Z,24.23
2019-02-21T15:30:16.195Z,25.43
2019-02-21T15:32:45.580Z,25.00
2019-02-21T15:35:15.256Z,25.70
2019-02-21T15:37:45.162Z,26.00
2019-02-21T15:40:14.711Z,25.37
2019-02-21T15:42:44.072Z,26.12
2019-02-21T15:45:22.981Z,24.72
2019-02-21T15:47:46.474Z,24.77
2019-02-21T15:50:15.855Z,25.67
2019-02-21T15:52:45.431Z,25.23
2019-02-21T15:55:15.354Z,24.67
2019-02-21T15:57:44.699Z,25.00
2019-02-21T16:00:16.227Z,26.67
2019-02-21T16:02:45.573Z,26.07
2019-02-21T16:05:14.869Z,30.93
2019-02-21T16:07:44.323Z,29.40
2019-02-21T16:10:15.895Z,32.93
2019-02-21T16:12:45.598Z,29.40
2019-02-21T16:15:16.564Z,29.07
2019-02-21T16:17:46.129Z,26.17
2019-02-21T16:20:15.893Z,27.32
2019-02-21T16:22:45.404Z,24.57
2019-02-21T16:25:16.836Z,23.90
2019-02-21T16:27:46.157Z,23.87
2019-02-21T16:30:15.665Z,23.27
2019-02-21T16:32:45.005Z,21.95
2019-02-21T16:35:14.334Z,22.60
2019-02-21T16:37:43.631Z,23.27
2019-02-21T16:40:13.729Z,22.90
2019-02-21T16:42:43.017Z,23.32
2019-02-21T16:45:13.411Z,24.82
2019-02-21T16:47:42.750Z,26.77
2019-02-21T16:50:12.911Z,26.70
2019-02-21T16:52:42.246Z,28.67
2019-02-21T16:55:13.819Z,30.97
2019-02-21T16:57:43.179Z,28.32
2019-02-21T17:00:13.466Z,29.64
2019-02-21T17:02:42.751Z,26.95
2019-02-21T17:05:12.272Z,25.30
2019-02-21T17:07:41.590Z,22.58
2019-02-21T17:10:12.121Z,26.07
2019-02-21T17:12:41.446Z,25.40
2019-02-21T17:15:11.593Z,23.70
2019-02-21T17:17:40.946Z,22.85
2019-02-21T17:20:11.950Z,23.10
2019-02-21T17:22:41.250Z,23.38
2019-02-21T17:25:11.531Z,23.55
2019-02-21T17:27:40.824Z,25.30
2019-02-21T17:30:11.492Z,27.07
2019-02-21T17:32:40.789Z,26.57
2019-02-21T17:35:10.190Z,26.77
2019-02-21T17:37:39.564Z,26.12
2019-02-21T17:40:10.815Z,26.15
2019-02-21T17:42:40.277Z,27.22
2019-02-21T17:45:10.513Z,27.17
2019-02-21T17:47:39.819Z,26.05
2019-02-21T17:50:11.058Z,26.80
2019-02-21T17:52:40.477Z,27.67
2019-02-21T17:55:10.082Z,28.38
2019-02-21T17:57:39.411Z,29.67
2019-02-21T18:00:11.958Z,29.30
2019-02-21T18:02:41.342Z,28.95
2019-02-21T18:05:10.736Z,30.88
2019-02-21T18:07:40.122Z,32.25
2019-02-21T18:10:11.493Z,33.28
2019-02-21T18:12:40.845Z,35.85
2019-02-21T18:15:10.677Z,34.75
2019-02-21T18:17:40.033Z,36.17
2019-02-21T18:20:10.279Z,37.55
2019-02-21T18:22:39.778Z,33.60
2019-02-21T18:25:12.517Z,34.08
2019-02-21T18:30:14.335Z,35.47
2019-02-21T18:32:43.662Z,34.15
2019-02-21T18:35:13.040Z,33.73
2019-02-21T18:37:47.540Z,34.10
2019-02-21T18:40:18.490Z,34.73
2019-02-21T18:42:46.430Z,30.30
2019-02-21T18:45:15.871Z,31.60
2019-02-21T18:47:45.226Z,29.95
2019-02-21T18:50:14.837Z,29.40
2019-02-21T18:52:44.162Z,30.17
2019-02-21T18:55:13.864Z,27.65
2019-02-21T18:57:43.145Z,27.48
2019-02-21T19:00:14.072Z,28.00
2019-02-21T19:02:43.352Z,27.93
2019-02-21T19:05:12.736Z,28.47
2019-02-21T19:07:42.084Z,28.05
2019-02-21T19:10:12.623Z,26.65
2019-02-21T19:12:42.125Z,27.58
2019-02-21T19:15:11.826Z,27.48
2019-02-21T19:17:41.262Z,28.67
2019-02-21T19:20:11.685Z,28.15
2019-02-21T19:22:41.228Z,29.80
2019-02-21T19:25:11.125Z,28.77
2019-02-21T19:27:40.537Z,29.20
2019-02-21T19:30:16.875Z,28.05
2019-02-21T19:32:46.265Z,28.47
2019-02-21T19:35:16.316Z,30.13
2019-02-21T19:37:45.790Z,29.80
2019-02-21T19:40:16.139Z,30.10
2019-02-21T19:42:45.564Z,32.05
2019-02-21T19:45:14.985Z,30.73
2019-02-21T19:47:44.377Z,30.88
2019-02-21T19:50:14.370Z,31.23
2019-02-21T19:52:43.815Z,30.43
2019-02-21T19:55:13.733Z,29.30
2019-02-21T19:57:43.182Z,29.98
2019-02-21T20:00:14.324Z,30.53
2019-02-21T20:02:43.756Z,32.78
2019-02-21T20:05:13.699Z,33.23
2019-02-21T20:07:43.039Z,34.63
2019-02-21T20:10:12.492Z,35.08
2019-02-21T20:12:42.135Z,36.75
2019-02-21T20:15:11.657Z,36.20
2019-02-21T20:17:40.994Z,36.95
2019-02-21T20:20:11.613Z,37.13
2019-02-21T20:22:40.978Z,38.00
2019-02-21T20:25:10.330Z,38.80
2019-02-21T20:27:39.805Z,38.78
2019-02-21T20:30:11.089Z,39.83
2019-02-21T20:32:40.618Z,40.15
2019-02-21T20:35:10.178Z,40.43
2019-02-21T20:37:39.669Z,41.02
2019-02-21T20:40:09.274Z,42.43
2019-02-21T20:42:38.589Z,41.23
2019-02-21T20:45:08.600Z,42.88
2019-02-21T20:47:37.971Z,44.98
2019-02-21T20:50:08.061Z,44.74
2019-02-21T20:52:37.430Z,42.85
2019-02-21T20:55:07.812Z,45.76
2019-02-21T20:57:37.179Z,47.48
2019-02-21T21:00:07.600Z,48.55
2019-02-21T21:02:38.273Z,47.58
2019-02-21T21:05:08.003Z,58.50
2019-02-21T21:07:37.381Z,49.18
2019-02-21T21:10:09.305Z,49.46
2019-02-21T21:12:38.689Z,49.80
2019-02-21T21:15:09.548Z,49.75
2019-02-21T21:17:39.143Z,51.30
2019-02-21T21:20:16.511Z,53.20
2019-02-21T21:22:40.936Z,53.00
2019-02-21T21:25:11.916Z,53.52
2019-02-21T21:27:41.289Z,54.75
2019-02-21T21:30:12.369Z,54.20
2019-02-21T21:32:41.764Z,57.17
2019-02-21T21:35:11.510Z,54.15
2019-02-21T21:37:40.791Z,54.77
2019-02-21T21:40:11.936Z,55.52
2019-02-21T21:42:41.372Z,55.17
2019-02-21T21:45:13.382Z,55.20
2019-02-21T21:47:42.762Z,55.80
2019-02-21T21:50:14.145Z,56.13
2019-02-21T21:52:43.508Z,56.58
2019-02-21T21:55:12.837Z,57.73
2019-02-21T21:57:42.236Z,58.48
2019-02-21T22:00:17.932Z,57.62
2019-02-21T22:02:46.800Z,56.73
2019-02-21T22:05:16.382Z,57.50
2019-02-21T22:07:49.526Z,58.98
2019-02-21T22:10:19.148Z,59.37
2019-02-21T22:12:48.488Z,58.92
2019-02-21T22:15:18.068Z,57.50
2019-02-21T22:17:47.444Z,57.03
2019-02-21T22:20:16.773Z,56.93
2019-02-21T22:22:46.108Z,58.15
2019-02-21T22:25:15.427Z,58.25
2019-02-21T22:27:44.813Z,55.35
2019-02-21T22:30:16.611Z,57.87
2019-02-21T22:32:46.030Z,57.55
2019-02-21T22:35:15.371Z,55.08
2019-02-21T22:37:44.755Z,56.18
2019-02-21T22:40:14.475Z,55.97
2019-02-21T22:42:43.818Z,58.20
2019-02-21T22:45:13.600Z,56.47
2019-02-21T22:47:42.927Z,56.92
2019-02-21T22:50:13.863Z,56.75
2019-02-21T22:52:43.251Z,57.85
2019-02-21T22:55:12.782Z,57.93
2019-02-21T22:57:42.189Z,58.35
2019-02-21T23:01:12.772Z,57.75
2019-02-21T23:03:50.763Z,54.80
2019-02-21T23:06:47.084Z,55.73
2019-02-21T23:09:27.455Z,55.45
2019-02-21T23:11:57.098Z,55.40
2019-02-21T23:14:36.997Z,57.35
2019-02-21T23:17:06.410Z,57.85
2019-02-21T23:19:59.979Z,56.90
2019-02-21T23:22:30.552Z,56.63
2019-02-21T23:24:59.887Z,56.90
2019-02-21T23:27:29.322Z,56.92
2019-02-21T23:29:58.807Z,59.20
2019-02-21T23:32:28.167Z,59.65
2019-02-21T23:35:00.792Z,58.45
2019-02-21T23:37:30.095Z,59.27
2019-02-21T23:40:09.347Z,62.05
2019-02-21T23:42:39.740Z,60.60
2019-02-21T23:45:09.221Z,59.55
2019-02-21T23:47:49.003Z,60.38
2019-02-21T23:50:09.572Z,58.28
2019-02-21T23:52:38.924Z,59.45
2019-02-21T23:55:08.250Z,59.93
2019-02-21T23:57:38.845Z,59.33
